sensor_id;sensor_type;location;lat;lon;timestamp;pressure;altitude;pressure_sealevel;temperature;humidity
17936;BME280;9093;52.062;4.508;2023-08-08T00:01:14;101719.88;;;17.60;71.23
17936;BME280;9093;52.062;4.508;2023-08-08T00:03:54;101725.19;;;17.62;71.01
17936;BME280;9093;52.062;4.508;2023-08-08T00:06:35;101725.06;;;17.63;71.10
17936;BME280;9093;52.062;4.508;2023-08-08T00:09:15;101727.78;;;17.63;71.32
17936;BME280;9093;52.062;4.508;2023-08-08T00:11:56;101728.63;;;17.64;71.21
17936;BME280;9093;52.062;4.508;2023-08-08T00:14:37;101723.34;;;17.62;71.14
17936;BME280;9093;52.062;4.508;2023-08-08T00:17:17;101728.63;;;17.64;71.07
17936;BME280;9093;52.062;4.508;2023-08-08T00:19:58;101726.69;;;17.66;70.96
17936;BME280;9093;52.062;4.508;2023-08-08T00:22:38;101732.84;;;17.68;70.83
17936;BME280;9093;52.062;4.508;2023-08-08T00:25:19;101725.81;;;17.65;70.83
17936;BME280;9093;52.062;4.508;2023-08-08T00:27:59;101727.53;;;17.66;70.92
17936;BME280;9093;52.062;4.508;2023-08-08T00:30:39;101720.41;;;17.65;70.74
17936;BME280;9093;52.062;4.508;2023-08-08T00:33:19;101729.47;;;17.64;70.67
17936;BME280;9093;52.062;4.508;2023-08-08T00:36:00;101723.34;;;17.62;70.59
17936;BME280;9093;52.062;4.508;2023-08-08T00:38:40;101726.03;;;17.62;70.61
17936;BME280;9093;52.062;4.508;2023-08-08T00:41:20;101731.44;;;17.62;70.48
17936;BME280;9093;52.062;4.508;2023-08-08T00:44:01;101722.56;;;17.60;70.59
17936;BME280;9093;52.062;4.508;2023-08-08T00:46:42;101719.06;;;17.58;70.59
17936;BME280;9093;52.062;4.508;2023-08-08T00:49:23;101721.91;;;17.57;70.61
17936;BME280;9093;52.062;4.508;2023-08-08T00:52:04;101719.28;;;17.55;70.54
17936;BME280;9093;52.062;4.508;2023-08-08T00:54:46;101713.22;;;17.52;70.49
17936;BME280;9093;52.062;4.508;2023-08-08T00:57:26;101719.50;;;17.52;70.23
17936;BME280;9093;52.062;4.508;2023-08-08T01:00:07;101719.72;;;17.49;69.98
17936;BME280;9093;52.062;4.508;2023-08-08T01:02:50;101716.06;;;17.50;70.19
17936;BME280;9093;52.062;4.508;2023-08-08T01:05:35;101718.00;;;17.48;69.89
17936;BME280;9093;52.062;4.508;2023-08-08T01:08:22;101711.81;;;17.46;69.96
17936;BME280;9093;52.062;4.508;2023-08-08T01:11:05;101710.94;;;17.46;69.88
17936;BME280;9093;52.062;4.508;2023-08-08T01:13:45;101719.91;;;17.46;69.76
17936;BME280;9093;52.062;4.508;2023-08-08T01:16:27;101718.19;;;17.45;69.89
17936;BME280;9093;52.062;4.508;2023-08-08T01:19:11;101712.78;;;17.45;69.60
17936;BME280;9093;52.062;4.508;2023-08-08T01:21:57;101715.72;;;17.42;69.51
17936;BME280;9093;52.062;4.508;2023-08-08T01:24:38;101716.56;;;17.43;69.35
17936;BME280;9093;52.062;4.508;2023-08-08T01:27:19;101707.59;;;17.42;69.54
17936;BME280;9093;52.062;4.508;2023-08-08T01:29:59;101713.97;;;17.41;69.74
17936;BME280;9093;52.062;4.508;2023-08-08T01:32:40;101715.91;;;17.39;69.25
17936;BME280;9093;52.062;4.508;2023-08-08T01:35:20;101713.19;;;17.39;69.04
17936;BME280;9093;52.062;4.508;2023-08-08T01:38:17;101710.50;;;17.39;69.18
17936;BME280;9093;52.062;4.508;2023-08-08T01:41:00;101716.91;;;17.38;68.85
17936;BME280;9093;52.062;4.508;2023-08-08T01:43:41;101710.72;;;17.36;68.86
17936;BME280;9093;52.062;4.508;2023-08-08T01:46:22;101711.50;;;17.38;68.90
17936;BME280;9093;52.062;4.508;2023-08-08T01:49:04;101703.50;;;17.37;68.76
17936;BME280;9093;52.062;4.508;2023-08-08T01:51:45;101703.50;;;17.37;68.82
17936;BME280;9093;52.062;4.508;2023-08-08T01:54:25;101698.09;;;17.37;68.78
17936;BME280;9093;52.062;4.508;2023-08-08T01:57:06;101702.63;;;17.36;68.69
17936;BME280;9093;52.062;4.508;2023-08-08T01:59:46;101702.63;;;17.36;68.71
17936;BME280;9093;52.062;4.508;2023-08-08T02:02:26;101695.50;;;17.35;68.80
17936;BME280;9093;52.062;4.508;2023-08-08T02:05:07;101695.50;;;17.35;68.55
17936;BME280;9093;52.062;4.508;2023-08-08T02:07:47;101686.63;;;17.33;68.74
17936;BME280;9093;52.062;4.508;2023-08-08T02:10:27;101692.81;;;17.35;68.72
17936;BME280;9093;52.062;4.508;2023-08-08T02:13:08;101678.44;;;17.35;68.60
17936;BME280;9093;52.062;4.508;2023-08-08T02:15:48;101683.84;;;17.35;68.62
17936;BME280;9093;52.062;4.508;2023-08-08T02:18:28;101677.56;;;17.34;68.68
17936;BME280;9093;52.062;4.508;2023-08-08T02:21:08;101685.75;;;17.33;68.62
17936;BME280;9093;52.062;4.508;2023-08-08T02:23:49;101681.13;;;17.35;68.48
17936;BME280;9093;52.062;4.508;2023-08-08T02:26:29;101690.31;;;17.32;68.57
17936;BME280;9093;52.062;4.508;2023-08-08T02:29:09;101687.63;;;17.32;68.79
17936;BME280;9093;52.062;4.508;2023-08-08T02:31:50;101684.94;;;17.32;68.74
17936;BME280;9093;52.062;4.508;2023-08-08T02:34:30;101682.31;;;17.31;68.47
17936;BME280;9093;52.062;4.508;2023-08-08T02:37:10;101679.53;;;17.32;68.77
17936;BME280;9093;52.062;4.508;2023-08-08T02:39:51;101678.66;;;17.32;68.59
17936;BME280;9093;52.062;4.508;2023-08-08T02:42:31;101674.13;;;17.32;68.51
17936;BME280;9093;52.062;4.508;2023-08-08T02:45:11;101670.44;;;17.33;68.44
17936;BME280;9093;52.062;4.508;2023-08-08T02:47:51;101670.44;;;17.33;68.25
17936;BME280;9093;52.062;4.508;2023-08-08T02:50:32;101672.41;;;17.31;68.30
17936;BME280;9093;52.062;4.508;2023-08-08T02:53:12;101676.06;;;17.30;68.42
17936;BME280;9093;52.062;4.508;2023-08-08T02:55:52;101676.06;;;17.30;68.18
17936;BME280;9093;52.062;4.508;2023-08-08T02:58:33;101663.53;;;17.29;68.21
17936;BME280;9093;52.062;4.508;2023-08-08T03:01:13;101653.78;;;17.26;68.39
17936;BME280;9093;52.062;4.508;2023-08-08T03:03:56;101663.00;;;17.24;68.29
17936;BME280;9093;52.062;4.508;2023-08-08T03:06:36;101660.28;;;17.24;68.15
17936;BME280;9093;52.062;4.508;2023-08-08T03:09:16;101662.03;;;17.25;68.42
17936;BME280;9093;52.062;4.508;2023-08-08T03:11:56;101669.34;;;17.23;68.36
17936;BME280;9093;52.062;4.508;2023-08-08T03:14:37;101668.47;;;17.22;68.52
17936;BME280;9093;52.062;4.508;2023-08-08T03:17:17;101661.34;;;17.21;68.24
17936;BME280;9093;52.062;4.508;2023-08-08T03:19:57;101668.56;;;17.21;68.40
17936;BME280;9093;52.062;4.508;2023-08-08T03:22:38;101666.84;;;17.20;68.19
17936;BME280;9093;52.062;4.508;2023-08-08T03:25:18;101665.00;;;17.20;68.15
17936;BME280;9093;52.062;4.508;2023-08-08T03:27:58;101665.88;;;17.21;68.16
17936;BME280;9093;52.062;4.508;2023-08-08T03:30:39;101666.84;;;17.20;68.28
17936;BME280;9093;52.062;4.508;2023-08-08T03:33:19;101658.75;;;17.20;68.08
17936;BME280;9093;52.062;4.508;2023-08-08T03:35:59;101653.34;;;17.20;68.04
17936;BME280;9093;52.062;4.508;2023-08-08T03:38:40;101648.94;;;17.19;68.15
17936;BME280;9093;52.062;4.508;2023-08-08T03:41:20;101646.34;;;17.17;68.08
17936;BME280;9093;52.062;4.508;2023-08-08T03:44:00;101641.06;;;17.16;68.04
17936;BME280;9093;52.062;4.508;2023-08-08T03:46:42;101643.97;;;17.13;67.94
17936;BME280;9093;52.062;4.508;2023-08-08T03:49:23;101645.91;;;17.11;67.74
17936;BME280;9093;52.062;4.508;2023-08-08T03:52:03;101641.47;;;17.10;67.60
17936;BME280;9093;52.062;4.508;2023-08-08T03:54:44;101643.41;;;17.08;67.43
17936;BME280;9093;52.062;4.508;2023-08-08T03:57:24;101641.69;;;17.07;67.05
17936;BME280;9093;52.062;4.508;2023-08-08T04:00:05;101633.81;;;17.04;66.98
17936;BME280;9093;52.062;4.508;2023-08-08T04:02:48;101645.56;;;17.03;66.53
17936;BME280;9093;52.062;4.508;2023-08-08T04:05:28;101638.44;;;17.02;66.60
17936;BME280;9093;52.062;4.508;2023-08-08T04:08:08;101642.13;;;17.01;66.43
17936;BME280;9093;52.062;4.508;2023-08-08T04:10:49;101635.84;;;17.00;66.39
17936;BME280;9093;52.062;4.508;2023-08-08T04:13:29;101637.69;;;17.00;66.38
17936;BME280;9093;52.062;4.508;2023-08-08T04:16:09;101637.88;;;16.97;66.12
17936;BME280;9093;52.062;4.508;2023-08-08T04:18:50;101630.75;;;16.96;66.30
17936;BME280;9093;52.062;4.508;2023-08-08T04:21:30;101637.22;;;16.93;66.27
17936;BME280;9093;52.062;4.508;2023-08-08T04:24:12;101638.09;;;16.94;66.21
17936;BME280;9093;52.062;4.508;2023-08-08T04:26:52;101646.38;;;16.91;66.48
17936;BME280;9093;52.062;4.508;2023-08-08T04:29:33;101641.00;;;16.91;66.25
17936;BME280;9093;52.062;4.508;2023-08-08T04:32:13;101631.28;;;16.88;66.11
17936;BME280;9093;52.062;4.508;2023-08-08T04:34:53;101633.13;;;16.87;65.97
17936;BME280;9093;52.062;4.508;2023-08-08T04:37:34;101641.22;;;16.87;66.20
17936;BME280;9093;52.062;4.508;2023-08-08T04:40:14;101644.88;;;16.86;65.96
17936;BME280;9093;52.062;4.508;2023-08-08T04:42:54;101641.41;;;16.84;65.84
17936;BME280;9093;52.062;4.508;2023-08-08T04:45:35;101647.66;;;16.85;65.62
17936;BME280;9093;52.062;4.508;2023-08-08T04:48:15;101654.88;;;16.84;65.61
17936;BME280;9093;52.062;4.508;2023-08-08T04:50:55;101647.66;;;16.85;65.80
17936;BME280;9093;52.062;4.508;2023-08-08T04:53:36;101645.84;;;16.85;65.74
17936;BME280;9093;52.062;4.508;2023-08-08T04:56:16;101646.69;;;16.86;65.78
17936;BME280;9093;52.062;4.508;2023-08-08T04:58:56;101644.88;;;16.86;65.89
17936;BME280;9093;52.062;4.508;2023-08-08T05:01:36;101646.47;;;16.89;65.82
17936;BME280;9093;52.062;4.508;2023-08-08T05:04:17;101655.25;;;16.93;65.90
17936;BME280;9093;52.062;4.508;2023-08-08T05:06:58;101657.94;;;16.93;65.69
17936;BME280;9093;52.062;4.508;2023-08-08T05:09:38;101655.25;;;16.93;65.85
17936;BME280;9093;52.062;4.508;2023-08-08T05:12:18;101660.66;;;16.93;65.83
17936;BME280;9093;52.062;4.508;2023-08-08T05:14:59;101646.19;;;16.94;65.80
17936;BME280;9093;52.062;4.508;2023-08-08T05:17:39;101652.56;;;16.93;65.79
17936;BME280;9093;52.062;4.508;2023-08-08T05:20:19;101652.66;;;16.91;65.59
17936;BME280;9093;52.062;4.508;2023-08-08T05:22:59;101646.38;;;16.91;65.51
17936;BME280;9093;52.062;4.508;2023-08-08T05:25:40;101661.72;;;16.90;65.44
17936;BME280;9093;52.062;4.508;2023-08-08T05:28:21;101664.41;;;16.90;65.48
17936;BME280;9093;52.062;4.508;2023-08-08T05:31:01;101656.53;;;16.87;65.52
17936;BME280;9093;52.062;4.508;2023-08-08T05:33:41;101662.78;;;16.87;65.24
17936;BME280;9093;52.062;4.508;2023-08-08T05:36:22;101661.06;;;16.86;65.18
17936;BME280;9093;52.062;4.508;2023-08-08T05:39:03;101653.94;;;16.85;64.95
17936;BME280;9093;52.062;4.508;2023-08-08T05:41:43;101647.56;;;16.86;64.93
17936;BME280;9093;52.062;4.508;2023-08-08T05:44:24;101653.06;;;16.85;64.65
17936;BME280;9093;52.062;4.508;2023-08-08T05:47:04;101659.31;;;16.85;64.47
17936;BME280;9093;52.062;4.508;2023-08-08T05:49:45;101661.06;;;16.86;64.45
17936;BME280;9093;52.062;4.508;2023-08-08T05:52:25;101663.66;;;16.88;64.45
17936;BME280;9093;52.062;4.508;2023-08-08T05:55:05;101661.94;;;16.87;64.29
17936;BME280;9093;52.062;4.508;2023-08-08T05:57:46;101660.09;;;16.87;64.34
17936;BME280;9093;52.062;4.508;2023-08-08T06:00:26;101661.78;;;16.88;64.37
17936;BME280;9093;52.062;4.508;2023-08-08T06:03:06;101668.84;;;16.91;64.39
17936;BME280;9093;52.062;4.508;2023-08-08T06:05:47;101667.88;;;16.92;64.42
17936;BME280;9093;52.062;4.508;2023-08-08T06:08:27;101666.03;;;16.93;64.06
17936;BME280;9093;52.062;4.508;2023-08-08T06:11:07;101665.06;;;16.94;64.50
17936;BME280;9093;52.062;4.508;2023-08-08T06:13:48;101671.22;;;16.96;64.34
17936;BME280;9093;52.062;4.508;2023-08-08T06:16:28;101666.59;;;16.98;63.92
17936;BME280;9093;52.062;4.508;2023-08-08T06:19:09;101676.19;;;17.02;64.10
17936;BME280;9093;52.062;4.508;2023-08-08T06:21:50;101676.97;;;17.04;64.15
17936;BME280;9093;52.062;4.508;2023-08-08T06:24:30;101678.78;;;17.03;63.97
17936;BME280;9093;52.062;4.508;2023-08-08T06:27:12;101676.00;;;17.05;64.04
17936;BME280;9093;52.062;4.508;2023-08-08T06:29:53;101676.00;;;17.05;63.80
17936;BME280;9093;52.062;4.508;2023-08-08T06:32:34;101671.56;;;17.04;64.13
17936;BME280;9093;52.062;4.508;2023-08-08T06:35:14;101681.19;;;17.08;63.99
17936;BME280;9093;52.062;4.508;2023-08-08T06:37:56;101672.13;;;17.09;63.78
17936;BME280;9093;52.062;4.508;2023-08-08T06:40:37;101670.97;;;17.13;63.83
17936;BME280;9093;52.062;4.508;2023-08-08T06:43:17;101667.06;;;17.17;63.86
17936;BME280;9093;52.062;4.508;2023-08-08T06:45:58;101678.41;;;17.22;63.66
17936;BME280;9093;52.062;4.508;2023-08-08T06:48:38;101666.47;;;17.26;63.53
17936;BME280;9093;52.062;4.508;2023-08-08T06:51:18;101670.84;;;17.27;63.24
17936;BME280;9093;52.062;4.508;2023-08-08T06:53:59;101670.84;;;17.27;63.33
17936;BME280;9093;52.062;4.508;2023-08-08T06:56:39;101667.41;;;17.25;63.28
17936;BME280;9093;52.062;4.508;2023-08-08T06:59:20;101674.56;;;17.26;63.06
17936;BME280;9093;52.062;4.508;2023-08-08T07:02:00;101668.94;;;17.29;63.19
17936;BME280;9093;52.062;4.508;2023-08-08T07:04:41;101672.41;;;17.31;63.15
17936;BME280;9093;52.062;4.508;2023-08-08T07:07:21;101673.13;;;17.33;63.03
17936;BME280;9093;52.062;4.508;2023-08-08T07:10:03;101673.72;;;17.38;62.90
17936;BME280;9093;52.062;4.508;2023-08-08T07:12:44;101671.75;;;17.40;62.94
17936;BME280;9093;52.062;4.508;2023-08-08T07:15:24;101668.84;;;17.43;62.79
17936;BME280;9093;52.062;4.508;2023-08-08T07:18:04;101672.09;;;17.48;62.80
17936;BME280;9093;52.062;4.508;2023-08-08T07:20:45;101672.63;;;17.53;62.73
17936;BME280;9093;52.062;4.508;2023-08-08T07:23:25;101667.91;;;17.57;62.62
17936;BME280;9093;52.062;4.508;2023-08-08T07:26:05;101672.03;;;17.62;62.52
17936;BME280;9093;52.062;4.508;2023-08-08T07:28:46;101673.75;;;17.63;62.55
17936;BME280;9093;52.062;4.508;2023-08-08T07:31:26;101657.44;;;17.65;62.40
17936;BME280;9093;52.062;4.508;2023-08-08T07:34:06;101661.00;;;17.65;62.44
17936;BME280;9093;52.062;4.508;2023-08-08T07:36:47;101662.63;;;17.68;62.46
17936;BME280;9093;52.062;4.508;2023-08-08T07:39:27;101660.78;;;17.68;62.26
17936;BME280;9093;52.062;4.508;2023-08-08T07:42:07;101669.63;;;17.71;62.38
17936;BME280;9093;52.062;4.508;2023-08-08T07:44:48;101649.22;;;17.66;62.10
17936;BME280;9093;52.062;4.508;2023-08-08T07:47:28;101650.97;;;17.67;61.98
17936;BME280;9093;52.062;4.508;2023-08-08T07:50:09;101659.81;;;17.70;61.92
17936;BME280;9093;52.062;4.508;2023-08-08T07:52:50;101660.78;;;17.68;61.81
17936;BME280;9093;52.062;4.508;2023-08-08T07:55:30;101659.81;;;17.70;61.72
17936;BME280;9093;52.062;4.508;2023-08-08T07:58:10;101672.47;;;17.69;62.00
17936;BME280;9093;52.062;4.508;2023-08-08T08:00:51;101674.94;;;17.72;61.96
17936;BME280;9093;52.062;4.508;2023-08-08T08:03:33;101672.91;;;17.76;61.83
17936;BME280;9093;52.062;4.508;2023-08-08T08:06:13;101655.50;;;17.80;61.70
17936;BME280;9093;52.062;4.508;2023-08-08T08:08:54;101664.22;;;17.83;61.74
17936;BME280;9093;52.062;4.508;2023-08-08T08:11:34;101659.47;;;17.87;61.71
17936;BME280;9093;52.062;4.508;2023-08-08T08:14:14;101670.81;;;17.92;61.41
17936;BME280;9093;52.062;4.508;2023-08-08T08:16:54;101672.31;;;17.96;61.56
17936;BME280;9093;52.062;4.508;2023-08-08T08:19:35;101666.81;;;17.97;61.47
17936;BME280;9093;52.062;4.508;2023-08-08T08:22:16;101651.25;;;18.01;61.38
17936;BME280;9093;52.062;4.508;2023-08-08T08:24:56;101661.84;;;18.04;61.46
